createdAt,value
2019-02-05T00:00:37.579Z,73.25
2019-02-05T00:06:02.739Z,73.00
2019-02-05T00:08:29.099Z,72.96
2019-02-05T00:10:55.697Z,73.48
2019-02-05T00:13:22.056Z,73.46
2019-02-05T00:15:48.423Z,73.13
2019-02-05T00:21:38.723Z,74.04
2019-02-05T00:24:04.995Z,73.41
2019-02-05T00:26:31.167Z,73.88
2019-02-05T00:28:57.489Z,73.42
2019-02-05T00:31:24.234Z,73.42
2019-02-05T00:33:50.834Z,72.69
2019-02-05T00:36:17.022Z,73.19
2019-02-05T00:38:43.349Z,73.00
2019-02-05T00:41:09.862Z,73.08
2019-02-05T00:43:36.208Z,73.97
2019-02-05T00:46:02.534Z,73.95
2019-02-05T00:48:28.705Z,74.14
2019-02-05T00:50:55.393Z,73.17
2019-02-05T00:53:22.304Z,73.66
2019-02-05T00:55:48.473Z,73.42
2019-02-05T00:58:14.719Z,73.92
2019-02-05T01:00:41.386Z,74.32
2019-02-05T01:03:08.034Z,74.48
2019-02-05T01:05:34.281Z,74.52
2019-02-05T01:08:01.272Z,74.38
2019-02-05T01:10:27.745Z,75.95
2019-02-05T01:12:54.957Z,77.24
2019-02-05T01:15:24.082Z,77.95
2019-02-05T01:17:50.991Z,78.63
2019-02-05T01:20:19.120Z,79.94
2019-02-05T01:22:46.112Z,80.44
2019-02-05T01:25:14.508Z,81.35
2019-02-05T01:27:41.005Z,81.75
2019-02-05T01:30:11.362Z,81.69
2019-02-05T01:32:37.980Z,82.67
2019-02-05T01:35:06.432Z,83.41
2019-02-05T01:37:32.865Z,85.33
2019-02-05T01:39:59.126Z,85.89
2019-02-05T01:42:25.410Z,86.52
2019-02-05T01:44:51.663Z,87.19
2019-02-05T01:47:18.436Z,88.20
2019-02-05T01:49:44.850Z,88.65
2019-02-05T01:52:11.233Z,89.03
2019-02-05T01:54:37.484Z,89.76
2019-02-05T02:00:30.781Z,91.48
2019-02-05T02:02:57.642Z,91.84
2019-02-05T02:05:24.086Z,92.08
2019-02-05T02:07:50.431Z,92.08
2019-02-05T02:10:23.279Z,92.37
2019-02-05T02:12:49.790Z,92.31
2019-02-05T02:15:16.134Z,91.87
2019-02-05T02:17:42.569Z,91.35
2019-02-05T02:20:12.327Z,91.83
2019-02-05T02:22:38.684Z,92.29
2019-02-05T02:25:08.074Z,91.59
2019-02-05T02:27:34.535Z,92.11
2019-02-05T02:30:01.035Z,91.16
2019-02-05T02:32:27.410Z,91.70
2019-02-05T02:34:53.869Z,91.78
2019-02-05T02:37:20.155Z,91.84
2019-02-05T02:39:46.512Z,91.68
2019-02-05T02:42:12.867Z,91.63
2019-02-05T02:44:39.135Z,91.54
2019-02-05T02:47:05.472Z,91.90
2019-02-05T02:49:32.022Z,91.72
2019-02-05T02:51:58.499Z,91.79
2019-02-05T02:54:24.807Z,91.17
2019-02-05T02:56:51.454Z,91.35
2019-02-05T02:59:18.878Z,91.21
2019-02-05T03:01:45.219Z,91.35
2019-02-05T03:04:11.949Z,91.47
2019-02-05T03:06:38.513Z,91.42
2019-02-05T03:09:14.850Z,91.37
2019-02-05T03:11:41.272Z,91.11
2019-02-05T03:14:07.775Z,91.25
2019-02-05T03:16:34.748Z,91.28
2019-02-05T03:19:01.159Z,91.26
2019-02-05T03:21:27.451Z,91.19
2019-02-05T03:23:53.851Z,91.88
2019-02-05T03:26:20.774Z,91.84
2019-02-05T03:28:47.376Z,91.84
2019-02-05T03:31:13.731Z,91.60
2019-02-05T03:33:40.021Z,90.97
2019-02-05T03:36:06.597Z,90.74
2019-02-05T03:38:33.133Z,90.68
2019-02-05T03:41:00.903Z,90.78
2019-02-05T03:43:27.143Z,91.17
2019-02-05T03:49:17.896Z,91.10
2019-02-05T03:51:47.966Z,91.26
2019-02-05T03:54:24.038Z,90.56
2019-02-05T03:57:10.734Z,90.36
2019-02-05T04:00:01.169Z,90.31
2019-02-05T04:02:46.817Z,90.79
2019-02-05T04:05:32.624Z,91.21
2019-02-05T04:08:30.480Z,91.43
2019-02-05T04:11:03.869Z,91.28
2019-02-05T04:13:46.904Z,91.29
2019-02-05T04:16:39.238Z,91.35
2019-02-05T04:19:24.713Z,91.27
2019-02-05T04:21:58.012Z,91.39
2019-02-05T04:24:46.442Z,91.35
2019-02-05T04:27:45.174Z,91.32
2019-02-05T04:30:10.354Z,91.60
2019-02-05T04:35:30.182Z,91.81
2019-02-05T04:38:09.218Z,91.85
2019-02-05T04:40:56.356Z,91.81
2019-02-05T04:43:29.907Z,91.95
2019-02-05T04:46:20.816Z,92.33
2019-02-05T04:49:07.908Z,92.16
2019-02-05T04:51:50.610Z,91.65
2019-02-05T04:54:26.604Z,92.06
2019-02-05T04:57:09.449Z,92.15
2019-02-05T05:00:08.320Z,92.60
2019-02-05T05:02:50.500Z,92.10
2019-02-05T05:05:38.796Z,91.86
2019-02-05T05:08:09.088Z,92.06
2019-02-05T05:10:35.414Z,92.25
2019-02-05T05:13:01.749Z,91.94
2019-02-05T05:15:28.398Z,91.60
2019-02-05T05:17:54.982Z,91.94
2019-02-05T05:20:21.434Z,91.82
2019-02-05T05:22:48.240Z,92.31
2019-02-05T05:28:41.690Z,92.26
2019-02-05T05:31:08.253Z,92.19
2019-02-05T05:33:34.872Z,92.21
2019-02-05T05:36:01.219Z,92.26
2019-02-05T05:38:27.426Z,91.97
2019-02-05T05:40:55.054Z,92.13
2019-02-05T05:43:21.572Z,92.37
2019-02-05T05:45:47.971Z,92.23
2019-02-05T05:48:14.437Z,92.46
2019-02-05T05:50:40.867Z,91.70
2019-02-05T05:53:07.373Z,91.81
2019-02-05T05:55:33.781Z,91.91
2019-02-05T05:58:00.265Z,91.68
2019-02-05T06:00:27.087Z,91.29
2019-02-05T06:02:53.558Z,91.71
2019-02-05T06:05:20.200Z,91.53
2019-02-05T06:07:47.438Z,91.32
2019-02-05T06:10:16.605Z,91.08
2019-02-05T06:12:43.070Z,90.94
2019-02-05T06:15:11.349Z,90.83
2019-02-05T06:17:37.795Z,91.25
2019-02-05T06:20:07.972Z,91.29
2019-02-05T06:22:34.461Z,91.21
2019-02-05T06:25:00.719Z,90.71
2019-02-05T06:27:27.335Z,91.34
2019-02-05T06:29:53.826Z,91.50
2019-02-05T06:32:20.196Z,91.33
2019-02-05T06:34:46.993Z,91.03
2019-02-05T06:37:13.404Z,91.20
2019-02-05T06:39:39.657Z,91.22
2019-02-05T06:42:10.678Z,91.20
2019-02-05T06:44:37.264Z,91.89
2019-02-05T06:47:04.167Z,91.60
2019-02-05T06:49:30.485Z,91.67
2019-02-05T06:51:57.432Z,91.51
2019-02-05T06:54:24.307Z,91.39
2019-02-05T06:56:51.545Z,91.29
2019-02-05T06:59:18.165Z,91.36
2019-02-05T07:01:44.816Z,90.88
2019-02-05T07:04:11.523Z,90.94
2019-02-05T07:06:38.136Z,91.11
2019-02-05T07:09:12.438Z,90.66
2019-02-05T07:11:38.941Z,90.45
2019-02-05T07:14:05.523Z,89.75
2019-02-05T07:16:32.126Z,90.21
2019-02-05T07:18:58.561Z,90.48
2019-02-05T07:21:24.924Z,90.50
2019-02-05T07:23:51.195Z,90.60
2019-02-05T07:26:18.002Z,90.22
2019-02-05T07:28:44.913Z,90.39
2019-02-05T07:31:11.652Z,90.56
2019-02-05T07:36:49.807Z,90.08
2019-02-05T07:39:16.661Z,90.10
2019-02-05T07:41:43.254Z,90.36
2019-02-05T07:44:09.836Z,90.35
2019-02-05T07:46:36.460Z,90.95
2019-02-05T07:49:03.994Z,91.53
2019-02-05T07:51:30.535Z,91.73
2019-02-05T07:53:57.124Z,92.48
2019-02-05T07:56:24.470Z,92.78
2019-02-05T07:58:51.664Z,92.42
2019-02-05T08:01:18.430Z,92.56
2019-02-05T08:03:48.086Z,92.37
2019-02-05T08:06:14.821Z,92.88
2019-02-05T08:08:41.598Z,92.45
2019-02-05T08:11:08.374Z,92.54
2019-02-05T08:13:34.742Z,91.94
2019-02-05T08:16:21.627Z,92.33
2019-02-05T08:18:54.389Z,92.41
2019-02-05T08:21:20.668Z,92.35
2019-02-05T08:23:50.267Z,92.30
2019-02-05T08:26:16.851Z,91.90
2019-02-05T08:28:43.536Z,92.37
2019-02-05T08:31:10.158Z,92.56
2019-02-05T08:33:36.584Z,92.42
2019-02-05T08:36:03.650Z,91.93
2019-02-05T08:38:30.046Z,91.56
2019-02-05T08:40:56.313Z,91.66
2019-02-05T08:43:22.592Z,91.61
2019-02-05T08:45:56.295Z,91.35
2019-02-05T08:48:17.560Z,91.06
2019-02-05T08:50:44.148Z,91.24
2019-02-05T08:53:10.807Z,90.81
2019-02-05T08:55:37.377Z,90.47
2019-02-05T08:58:09.891Z,90.26
2019-02-05T09:00:49.807Z,90.19
2019-02-05T09:03:22.051Z,90.10
2019-02-05T09:05:48.775Z,90.17
2019-02-05T09:08:15.441Z,90.48
2019-02-05T09:10:41.835Z,90.32
2019-02-05T09:13:09.019Z,90.47
2019-02-05T09:15:35.962Z,89.49
2019-02-05T09:18:02.718Z,89.62
2019-02-05T09:20:29.113Z,89.41
2019-02-05T09:22:55.544Z,89.58
2019-02-05T09:25:21.999Z,89.73
2019-02-05T09:27:48.744Z,89.71
2019-02-05T09:30:27.881Z,89.39
2019-02-05T09:32:56.626Z,88.89
2019-02-05T09:35:22.960Z,88.83
2019-02-05T09:37:49.468Z,88.86
2019-02-05T09:40:21.838Z,89.18
2019-02-05T09:42:48.212Z,89.52
2019-02-05T09:45:24.991Z,88.81
2019-02-05T09:47:51.856Z,88.30
2019-02-05T09:50:18.657Z,88.11
2019-02-05T09:52:45.509Z,87.88
2019-02-05T09:55:17.384Z,88.72
2019-02-05T09:57:44.158Z,88.39
2019-02-05T10:00:25.697Z,88.41
2019-02-05T10:02:52.439Z,88.37
2019-02-05T10:05:21.856Z,88.65
2019-02-05T10:07:48.468Z,89.39
2019-02-05T10:10:17.586Z,89.47
2019-02-05T10:12:46.914Z,89.06
2019-02-05T10:15:16.574Z,88.86
2019-02-05T10:17:43.058Z,88.64
2019-02-05T10:20:11.648Z,88.49
2019-02-05T10:22:38.634Z,87.77
2019-02-05T10:25:07.859Z,88.32
2019-02-05T10:27:34.339Z,88.36
2019-02-05T10:30:00.806Z,88.00
2019-02-05T10:32:27.590Z,87.68
2019-02-05T10:34:53.980Z,87.42
2019-02-05T10:37:20.500Z,87.41
2019-02-05T10:39:46.802Z,87.01
2019-02-05T10:42:13.708Z,86.01
2019-02-05T10:44:40.531Z,85.40
2019-02-05T10:47:07.426Z,85.98
2019-02-05T10:49:33.657Z,86.50
2019-02-05T10:52:00.102Z,86.28
2019-02-05T10:54:26.589Z,86.62
2019-02-05T10:56:53.196Z,86.08
2019-02-05T10:59:19.664Z,85.98
2019-02-05T11:01:46.093Z,84.82
2019-02-05T11:04:12.775Z,84.92
2019-02-05T11:06:39.131Z,85.02
2019-02-05T11:09:07.989Z,84.82
2019-02-05T11:11:34.490Z,84.21
2019-02-05T11:14:00.864Z,84.70
2019-02-05T11:16:27.192Z,84.27
2019-02-05T11:18:53.656Z,84.71
2019-02-05T11:21:20.244Z,83.37
2019-02-05T11:23:46.893Z,82.38
2019-02-05T11:26:13.777Z,82.70
2019-02-05T11:28:39.961Z,82.26
2019-02-05T11:31:06.665Z,83.18
2019-02-05T11:33:33.216Z,82.96
2019-02-05T11:35:59.486Z,82.48
2019-02-05T11:38:25.782Z,83.15
2019-02-05T11:40:52.494Z,83.89
2019-02-05T11:43:18.831Z,84.24
2019-02-05T11:45:45.437Z,84.21
2019-02-05T11:48:14.101Z,85.55
2019-02-05T11:50:40.616Z,85.53
2019-02-05T11:53:07.040Z,85.64
2019-02-05T11:55:34.143Z,84.92
2019-02-05T11:58:00.749Z,84.57
2019-02-05T12:00:33.151Z,84.62
2019-02-05T12:03:00.270Z,84.72
2019-02-05T12:05:27.122Z,84.83
2019-02-05T12:07:54.193Z,84.77
2019-02-05T12:10:20.525Z,84.32
2019-02-05T12:12:47.002Z,85.12
2019-02-05T12:15:15.440Z,85.55
2019-02-05T12:17:41.997Z,85.35
2019-02-05T12:20:11.663Z,84.53
2019-02-05T12:22:38.535Z,83.68
2019-02-05T12:25:14.583Z,83.66
2019-02-05T12:27:41.178Z,83.76
2019-02-05T12:30:17.038Z,83.62
2019-02-05T12:32:43.456Z,82.70
2019-02-05T12:35:09.834Z,82.60
2019-02-05T12:37:36.271Z,80.74
2019-02-05T12:40:06.185Z,80.39
2019-02-05T12:42:32.534Z,80.71
2019-02-05T12:44:59.357Z,80.16
2019-02-05T12:47:25.656Z,80.88
2019-02-05T12:49:52.046Z,79.80
2019-02-05T12:52:18.520Z,80.13
2019-02-05T12:54:44.747Z,80.03
2019-02-05T12:57:11.178Z,79.37
2019-02-05T12:59:37.502Z,79.77
2019-02-05T13:02:04.299Z,79.93
2019-02-05T13:04:30.833Z,79.95
2019-02-05T13:06:58.717Z,79.93
2019-02-05T13:09:25.008Z,79.53
2019-02-05T13:11:51.433Z,79.80
2019-02-05T13:14:17.646Z,79.01
2019-02-05T13:16:44.440Z,79.62
2019-02-05T13:19:10.911Z,79.26
2019-02-05T13:21:37.339Z,79.43
2019-02-05T13:24:04.347Z,79.23
2019-02-05T13:26:30.739Z,79.25
2019-02-05T13:28:57.021Z,79.26
2019-02-05T13:31:23.383Z,80.92
2019-02-05T13:33:49.750Z,80.15
2019-02-05T13:36:16.126Z,80.80
2019-02-05T13:38:42.462Z,79.90
2019-02-05T13:41:08.671Z,79.95
2019-02-05T13:43:35.210Z,80.69
2019-02-05T13:46:01.797Z,79.41
2019-02-05T13:48:28.063Z,79.00
2019-02-05T13:50:54.372Z,79.29
2019-02-05T13:53:20.744Z,79.82
2019-02-05T13:55:47.041Z,79.38
2019-02-05T13:58:13.967Z,79.51
2019-02-05T14:00:46.576Z,78.70
2019-02-05T14:03:12.908Z,79.22
2019-02-05T14:05:39.329Z,79.13
2019-02-05T14:08:06.277Z,78.31
2019-02-05T14:10:35.021Z,78.76
2019-02-05T14:13:01.501Z,78.25
2019-02-05T14:15:30.720Z,78.73
2019-02-05T14:17:57.239Z,79.94
2019-02-05T14:20:23.966Z,79.32
2019-02-05T14:22:50.283Z,79.41
2019-02-05T14:25:16.949Z,80.67
2019-02-05T14:27:43.488Z,80.92
2019-02-05T14:30:13.799Z,81.18
2019-02-05T14:32:40.196Z,81.18
2019-02-05T14:35:08.521Z,80.93
2019-02-05T14:37:35.236Z,81.48
2019-02-05T14:40:01.815Z,81.80
2019-02-05T14:42:28.357Z,82.22
2019-02-05T14:44:54.663Z,81.57
2019-02-05T14:47:21.127Z,81.97
2019-02-05T14:49:47.493Z,81.34
2019-02-05T14:52:13.824Z,81.93
2019-02-05T14:54:39.974Z,82.54
2019-02-05T14:57:06.576Z,82.92
2019-02-05T14:59:32.816Z,82.91
2019-02-05T15:05:23.575Z,82.87
2019-02-05T15:07:49.806Z,82.49
2019-02-05T15:10:17.981Z,83.32
2019-02-05T15:12:44.306Z,83.20
2019-02-05T15:15:13.617Z,83.30
2019-02-05T15:17:39.845Z,82.97
2019-02-05T15:20:10.470Z,83.04
2019-02-05T15:22:36.932Z,83.17
2019-02-05T15:25:07.359Z,83.46
2019-02-05T15:27:33.795Z,82.92
2019-02-05T15:30:00.336Z,83.27
2019-02-05T15:32:31.338Z,83.21
2019-02-05T15:34:58.116Z,83.73
2019-02-05T15:37:24.410Z,82.51
2019-02-05T15:39:50.558Z,82.27
2019-02-05T15:42:16.790Z,82.21
2019-02-05T15:44:43.095Z,82.71
2019-02-05T15:47:09.535Z,82.10
2019-02-05T15:49:35.870Z,82.34
2019-02-05T15:52:02.382Z,83.36
2019-02-05T15:54:31.039Z,82.98
2019-02-05T15:56:57.346Z,82.46
2019-02-05T15:59:23.651Z,82.30
2019-02-05T16:01:50.237Z,82.38
2019-02-05T16:04:16.650Z,82.46
2019-02-05T16:06:43.229Z,82.50
2019-02-05T16:09:10.115Z,81.83
2019-02-05T16:11:36.829Z,82.18
2019-02-05T16:14:04.034Z,82.04
2019-02-05T16:16:30.457Z,82.80
2019-02-05T16:18:57.064Z,82.86
2019-02-05T16:21:23.558Z,82.27
2019-02-05T16:23:52.930Z,82.41
2019-02-05T16:26:34.167Z,82.38
2019-02-05T16:29:06.861Z,82.48
2019-02-05T16:31:33.386Z,82.63
2019-02-05T16:33:59.746Z,82.38
2019-02-05T16:36:26.064Z,82.40
2019-02-05T16:38:52.242Z,82.84
2019-02-05T16:41:18.542Z,82.88
2019-02-05T16:43:44.818Z,83.25
2019-02-05T16:46:11.238Z,82.75
2019-02-05T16:48:38.233Z,83.02
2019-02-05T16:51:04.686Z,82.74
2019-02-05T16:53:30.960Z,82.90
2019-02-05T16:55:57.436Z,82.81
2019-02-05T16:58:23.923Z,83.42
2019-02-05T17:00:50.257Z,83.63
2019-02-05T17:03:16.522Z,83.66
2019-02-05T17:05:43.246Z,83.81
2019-02-05T17:08:09.798Z,84.02
2019-02-05T17:10:36.065Z,84.51
2019-02-05T17:13:03.406Z,84.47
2019-02-05T17:15:29.674Z,84.60
2019-02-05T17:21:19.937Z,86.13
2019-02-05T17:23:46.522Z,85.34
2019-02-05T17:26:13.014Z,85.06
2019-02-05T17:28:39.337Z,84.95
2019-02-05T17:31:06.470Z,85.24
2019-02-05T17:33:32.775Z,85.06
2019-02-05T17:35:59.589Z,85.26
2019-02-05T17:38:26.362Z,85.18
2019-02-05T17:40:54.670Z,85.61
2019-02-05T17:43:21.425Z,86.75
2019-02-05T17:45:47.909Z,87.59
2019-02-05T17:48:15.371Z,87.38
2019-02-05T17:50:42.354Z,87.12
2019-02-05T17:53:09.203Z,86.94
2019-02-05T17:55:35.819Z,86.93
2019-02-05T17:58:02.742Z,87.78
2019-02-05T18:03:41.481Z,87.10
2019-02-05T18:06:08.040Z,87.38
2019-02-05T18:08:41.031Z,88.14
2019-02-05T18:11:17.885Z,87.99
2019-02-05T18:16:57.783Z,87.61
2019-02-05T18:19:24.703Z,87.69
2019-02-05T18:21:51.507Z,87.63
2019-02-05T18:24:17.937Z,87.43
2019-02-05T18:30:31.597Z,87.14
2019-02-05T18:33:05.527Z,87.08
2019-02-05T18:39:06.852Z,86.93
2019-02-05T18:44:48.238Z,87.20
2019-02-05T18:47:14.786Z,86.67
2019-02-05T18:49:41.434Z,86.67
2019-02-05T18:55:45.720Z,87.00
2019-02-05T19:01:36.675Z,87.25
2019-02-05T19:07:14.641Z,87.13
2019-02-05T19:09:47.241Z,86.53
2019-02-05T19:12:17.318Z,85.82
2019-02-05T19:14:44.546Z,86.27
2019-02-05T19:20:34.694Z,86.40
2019-02-05T19:26:26.571Z,86.56
2019-02-05T19:32:05.067Z,86.04
2019-02-05T19:34:31.894Z,85.82
2019-02-05T19:40:21.289Z,86.56
2019-02-05T19:42:48.177Z,86.78
2019-02-05T19:45:16.921Z,86.83
2019-02-05T19:47:43.352Z,86.04
2019-02-05T19:50:09.777Z,86.14
2019-02-05T19:56:00.629Z,86.93
2019-02-05T20:01:38.968Z,86.66
2019-02-05T20:04:05.910Z,86.72
2019-02-05T20:06:32.209Z,86.38
2019-02-05T20:08:58.797Z,86.14
2019-02-05T20:11:25.535Z,86.72
2019-02-05T20:17:28.194Z,85.92
2019-02-05T20:19:54.949Z,85.89
2019-02-05T20:22:21.778Z,86.22
2019-02-05T20:24:48.274Z,85.95
2019-02-05T20:27:15.124Z,86.00
2019-02-05T20:33:17.086Z,85.76
2019-02-05T20:42:12.156Z,85.39
2019-02-05T20:44:38.850Z,86.13
2019-02-05T20:50:28.573Z,86.03
2019-02-05T20:52:55.225Z,86.54
2019-02-05T20:55:23.191Z,86.46
2019-02-05T20:57:49.584Z,85.80
2019-02-05T21:00:24.866Z,85.74
2019-02-05T21:02:51.206Z,85.43
2019-02-05T21:05:18.716Z,86.05
2019-02-05T21:11:08.879Z,85.86
2019-02-05T21:13:35.095Z,85.95
2019-02-05T21:16:01.850Z,86.11
2019-02-05T21:22:03.715Z,87.44
2019-02-05T21:24:30.009Z,87.04
2019-02-05T21:30:31.148Z,87.68
2019-02-05T21:32:57.359Z,87.11
2019-02-05T21:38:47.133Z,88.61
2019-02-05T21:41:13.512Z,88.43
2019-02-05T21:46:51.601Z,87.27
2019-02-05T21:49:18.256Z,88.01
2019-02-05T21:51:47.252Z,88.39
2019-02-05T21:54:13.684Z,89.04
2019-02-05T21:56:40.052Z,88.96
2019-02-05T21:59:06.659Z,89.26
2019-02-05T22:01:36.132Z,89.60
2019-02-05T22:04:02.870Z,89.92
2019-02-05T22:06:29.284Z,89.94
2019-02-05T22:08:56.062Z,89.71
2019-02-05T22:11:22.377Z,89.80
2019-02-05T22:13:49.135Z,89.42
2019-02-05T22:16:15.442Z,89.21
2019-02-05T22:18:42.570Z,89.04
2019-02-05T22:21:09.454Z,89.04
2019-02-05T22:23:35.856Z,89.74
2019-02-05T22:26:02.319Z,89.57
2019-02-05T22:28:28.902Z,90.20
2019-02-05T22:30:55.625Z,90.39
2019-02-05T22:33:22.095Z,90.68
2019-02-05T22:35:48.682Z,90.65
2019-02-05T22:38:15.236Z,91.11
2019-02-05T22:40:41.676Z,91.46
2019-02-05T22:43:08.481Z,91.55
2019-02-05T22:45:35.024Z,91.68
2019-02-05T22:48:01.518Z,91.73
2019-02-05T22:50:48.875Z,90.74
2019-02-05T22:53:14.982Z,91.13
2019-02-05T22:55:44.979Z,91.47
2019-02-05T22:58:11.643Z,91.71
2019-02-05T23:00:48.211Z,91.60
2019-02-05T23:03:15.917Z,91.57
2019-02-05T23:05:49.367Z,91.64
2019-02-05T23:08:15.814Z,91.68
2019-02-05T23:10:45.983Z,91.94
2019-02-05T23:13:12.569Z,92.13
2019-02-05T23:15:39.272Z,92.20
2019-02-05T23:18:06.241Z,91.91
2019-02-05T23:20:32.836Z,92.55
2019-02-05T23:22:59.917Z,92.99
2019-02-05T23:25:26.385Z,92.83
2019-02-05T23:27:53.032Z,92.64
2019-02-05T23:30:20.785Z,92.15
2019-02-05T23:32:47.082Z,92.31
2019-02-05T23:35:13.764Z,92.76
2019-02-05T23:37:40.677Z,92.50
2019-02-05T23:40:31.992Z,91.94
2019-02-05T23:42:58.360Z,92.07
2019-02-05T23:45:24.769Z,92.22
2019-02-05T23:47:51.182Z,92.20
2019-02-05T23:50:17.591Z,92.32
2019-02-05T23:52:44.681Z,92.32
2019-02-05T23:55:12.601Z,91.90
2019-02-05T23:57:39.187Z,92.00
